createdAt,value
2023-01-15T00:01:39.856Z,28.82
2023-01-15T00:04:10.727Z,28.86
2023-01-15T00:06:43.811Z,28.82
2023-01-15T00:09:17.632Z,28.85
2023-01-15T00:11:47.687Z,28.84
2023-01-15T00:14:17.559Z,28.79
2023-01-15T00:16:47.758Z,28.76
2023-01-15T00:19:18.135Z,28.70
2023-01-15T00:21:48.210Z,28.79
2023-01-15T00:24:36.283Z,28.80
2023-01-15T00:27:24.832Z,28.82
2023-01-15T00:29:54.980Z,28.85
2023-01-15T00:32:25.003Z,28.85
2023-01-15T00:34:56.969Z,28.89
2023-01-15T00:37:26.978Z,28.90
2023-01-15T00:39:56.832Z,28.89
2023-01-15T00:42:26.992Z,28.90
2023-01-15T00:44:57.951Z,28.92
2023-01-15T00:47:28.471Z,28.92
2023-01-15T00:49:58.538Z,28.95
2023-01-15T00:52:28.443Z,28.94
2023-01-15T00:54:58.387Z,28.93
2023-01-15T00:57:28.343Z,28.94
2023-01-15T00:59:58.198Z,28.95
2023-01-15T01:02:28.576Z,28.95
2023-01-15T01:04:58.746Z,28.94
2023-01-15T01:07:28.919Z,28.92
2023-01-15T01:09:58.904Z,28.95
2023-01-15T01:12:28.863Z,28.98
2023-01-15T01:14:58.714Z,28.98
2023-01-15T01:17:28.685Z,28.97
2023-01-15T01:19:58.908Z,28.96
2023-01-15T01:22:31.201Z,28.99
2023-01-15T01:25:01.536Z,28.98
2023-01-15T01:27:31.619Z,28.99
2023-01-15T01:30:01.770Z,28.97
2023-01-15T01:32:31.635Z,29.00
2023-01-15T01:35:01.532Z,28.99
2023-01-15T01:37:31.573Z,29.01
2023-01-15T01:40:01.424Z,28.99
2023-01-15T01:42:31.536Z,29.01
2023-01-15T01:45:06.452Z,29.00
2023-01-15T01:47:37.856Z,29.02
2023-01-15T01:50:12.888Z,29.02
2023-01-15T01:52:51.790Z,29.01
2023-01-15T01:55:24.780Z,29.02
2023-01-15T01:58:01.181Z,29.03
2023-01-15T02:00:32.348Z,29.03
2023-01-15T02:03:04.558Z,29.05
2023-01-15T02:05:38.282Z,29.07
2023-01-15T02:08:09.575Z,29.06
2023-01-15T02:10:39.727Z,29.09
2023-01-15T02:13:34.951Z,29.09
2023-01-15T02:16:19.770Z,29.08
2023-01-15T02:19:14.511Z,29.11
2023-01-15T02:22:06.110Z,29.10
2023-01-15T02:25:02.356Z,29.11
2023-01-15T02:27:33.385Z,29.11
2023-01-15T02:30:15.226Z,29.11
2023-01-15T02:32:59.141Z,29.13
2023-01-15T02:35:33.057Z,29.12
2023-01-15T02:38:08.006Z,29.13
2023-01-15T02:40:39.995Z,29.13
2023-01-15T02:43:14.746Z,29.14
2023-01-15T02:45:49.666Z,29.14
2023-01-15T02:48:23.287Z,29.15
2023-01-15T02:51:21.498Z,29.16
2023-01-15T02:53:53.765Z,29.16
2023-01-15T02:56:29.368Z,29.19
2023-01-15T02:59:08.640Z,29.19
2023-01-15T03:01:50.485Z,29.22
2023-01-15T03:04:27.854Z,29.21
2023-01-15T03:07:39.340Z,29.23
2023-01-15T03:10:11.221Z,29.24
2023-01-15T03:13:05.700Z,29.23
2023-01-15T03:16:04.646Z,29.24
2023-01-15T03:18:43.678Z,29.24
2023-01-15T03:21:19.974Z,29.25
2023-01-15T03:23:55.269Z,29.25
2023-01-15T03:26:29.505Z,29.27
2023-01-15T03:29:01.416Z,29.26
2023-01-15T03:31:32.676Z,29.26
2023-01-15T03:34:02.591Z,29.26
2023-01-15T03:36:32.828Z,29.26
2023-01-15T03:39:05.387Z,29.28
2023-01-15T03:42:09.689Z,29.29
2023-01-15T03:45:14.872Z,29.28
2023-01-15T03:47:49.299Z,29.29
2023-01-15T03:50:21.492Z,29.31
2023-01-15T03:52:55.599Z,29.33
2023-01-15T03:55:39.363Z,29.33
2023-01-15T03:58:23.382Z,29.31
2023-01-15T04:00:56.463Z,29.33
2023-01-15T04:03:28.766Z,29.35
2023-01-15T04:06:03.831Z,29.34
2023-01-15T04:08:41.814Z,29.33
2023-01-15T04:11:12.179Z,29.35
2023-01-15T04:13:48.463Z,29.36
2023-01-15T04:16:32.829Z,29.36
2023-01-15T04:19:03.027Z,29.37
2023-01-15T04:21:35.972Z,29.38
2023-01-15T04:24:06.166Z,29.39
2023-01-15T04:26:36.238Z,29.39
2023-01-15T04:29:06.179Z,29.39
2023-01-15T04:31:38.092Z,29.40
2023-01-15T04:34:08.135Z,29.41
2023-01-15T04:36:38.114Z,29.41
2023-01-15T04:39:08.620Z,29.41
2023-01-15T04:41:56.857Z,29.43
2023-01-15T04:44:29.849Z,29.42
2023-01-15T04:47:02.156Z,29.40
2023-01-15T04:49:32.317Z,29.43
2023-01-15T04:52:02.457Z,29.43
2023-01-15T04:54:32.522Z,29.44
2023-01-15T04:57:02.442Z,29.46
2023-01-15T04:59:32.329Z,29.44
2023-01-15T05:02:05.981Z,29.46
2023-01-15T05:04:37.029Z,29.44
2023-01-15T05:07:07.813Z,29.47
2023-01-15T05:09:38.016Z,29.47
2023-01-15T05:12:08.660Z,29.50
2023-01-15T05:14:38.691Z,29.50
2023-01-15T05:17:08.594Z,29.49
2023-01-15T05:19:38.477Z,29.48
2023-01-15T05:22:08.341Z,29.51
2023-01-15T05:24:38.393Z,29.51
2023-01-15T05:27:08.368Z,29.51
2023-01-15T05:29:39.031Z,29.50
2023-01-15T05:32:09.718Z,29.52
2023-01-15T05:34:39.935Z,29.53
2023-01-15T05:37:09.882Z,29.51
2023-01-15T05:39:39.958Z,29.51
2023-01-15T05:42:10.150Z,29.50
2023-01-15T05:44:40.251Z,29.52
2023-01-15T05:47:13.092Z,29.53
2023-01-15T05:49:43.255Z,29.54
2023-01-15T05:52:13.197Z,29.54
2023-01-15T05:54:43.073Z,29.52
2023-01-15T05:57:15.258Z,29.53
2023-01-15T05:59:45.331Z,29.55
2023-01-15T06:02:15.223Z,29.57
2023-01-15T06:04:45.294Z,29.54
2023-01-15T06:07:15.152Z,29.55
2023-01-15T06:09:45.097Z,29.56
2023-01-15T06:12:14.982Z,29.58
2023-01-15T06:14:44.960Z,29.56
2023-01-15T06:17:14.871Z,29.58
2023-01-15T06:19:44.721Z,29.57
2023-01-15T06:22:14.625Z,29.55
2023-01-15T06:24:44.498Z,29.57
2023-01-15T06:27:14.549Z,29.57
2023-01-15T06:29:44.403Z,29.56
2023-01-15T06:32:14.473Z,29.55
2023-01-15T06:34:45.913Z,29.58
2023-01-15T06:37:16.314Z,29.58
2023-01-15T06:39:46.408Z,29.56
2023-01-15T06:42:34.660Z,29.59
2023-01-15T06:45:22.993Z,29.59
2023-01-15T06:47:53.019Z,29.58
2023-01-15T06:50:22.901Z,29.58
2023-01-15T06:52:52.823Z,29.59
2023-01-15T06:55:22.827Z,29.59
2023-01-15T06:57:52.748Z,29.60
2023-01-15T07:00:22.997Z,29.62
2023-01-15T07:02:53.292Z,29.62
2023-01-15T07:05:23.439Z,29.61
2023-01-15T07:07:53.637Z,29.62
2023-01-15T07:10:23.788Z,29.62
2023-01-15T07:12:54.017Z,29.62
2023-01-15T07:15:24.095Z,29.62
2023-01-15T07:17:58.988Z,29.62
2023-01-15T07:20:29.072Z,29.61
2023-01-15T07:22:58.934Z,29.65
2023-01-15T07:25:28.794Z,29.65
2023-01-15T07:27:58.694Z,29.64
2023-01-15T07:30:28.614Z,29.66
2023-01-15T07:32:59.643Z,29.67
2023-01-15T07:35:29.721Z,29.69
2023-01-15T07:38:00.023Z,29.68
2023-01-15T07:40:30.043Z,29.69
2023-01-15T07:43:18.334Z,29.70
2023-01-15T07:46:06.792Z,29.69
2023-01-15T07:48:56.227Z,29.70
2023-01-15T07:51:26.201Z,29.70
2023-01-15T07:53:57.196Z,29.71
2023-01-15T07:56:27.297Z,29.71
2023-01-15T07:58:57.172Z,29.74
2023-01-15T08:01:27.223Z,29.73
2023-01-15T08:03:57.201Z,29.74
2023-01-15T08:06:27.092Z,29.75
2023-01-15T08:08:56.982Z,29.73
2023-01-15T08:11:44.837Z,29.76
2023-01-15T08:14:33.274Z,29.75
2023-01-15T08:17:03.500Z,29.75
2023-01-15T08:19:33.496Z,29.77
2023-01-15T08:22:03.710Z,29.76
2023-01-15T08:24:33.781Z,29.76
2023-01-15T08:27:03.618Z,29.79
2023-01-15T08:29:33.593Z,29.80
2023-01-15T08:32:03.704Z,29.80
2023-01-15T08:34:33.759Z,29.80
2023-01-15T08:37:03.737Z,29.80
2023-01-15T08:39:33.960Z,29.79
2023-01-15T08:42:04.363Z,29.78
2023-01-15T08:44:35.262Z,29.79
2023-01-15T08:47:05.373Z,29.80
2023-01-15T08:49:35.215Z,29.80
2023-01-15T08:52:05.669Z,29.82
2023-01-15T08:54:36.827Z,29.82
2023-01-15T08:57:06.875Z,29.80
2023-01-15T08:59:36.731Z,29.83
2023-01-15T09:02:06.930Z,29.82
2023-01-15T09:04:37.109Z,29.84
2023-01-15T09:07:07.247Z,29.84
2023-01-15T09:09:37.514Z,29.81
2023-01-15T09:12:07.615Z,29.83
2023-01-15T09:14:56.079Z,29.84
2023-01-15T09:17:27.494Z,29.84
2023-01-15T09:19:57.374Z,29.85
2023-01-15T09:22:30.343Z,29.83
2023-01-15T09:25:00.737Z,29.85
2023-01-15T09:27:31.143Z,29.83
2023-01-15T09:30:01.210Z,29.83
2023-01-15T09:32:31.119Z,29.81
2023-01-15T09:35:01.014Z,29.83
2023-01-15T09:37:31.129Z,29.84
2023-01-15T09:40:01.008Z,29.84
2023-01-15T09:42:53.746Z,29.84
2023-01-15T09:45:48.361Z,29.85
2023-01-15T09:48:48.978Z,29.84
2023-01-15T09:51:22.329Z,29.87
2023-01-15T09:54:08.276Z,29.86
2023-01-15T09:56:40.281Z,29.83
2023-01-15T09:59:34.804Z,29.83
2023-01-15T10:02:23.147Z,29.86
2023-01-15T10:05:00.353Z,29.86
2023-01-15T10:08:00.970Z,29.84
2023-01-15T10:10:39.659Z,29.87
2023-01-15T10:13:33.603Z,29.84
2023-01-15T10:16:04.150Z,29.83
2023-01-15T10:18:34.386Z,29.84
2023-01-15T10:21:13.246Z,29.83
2023-01-15T10:23:58.930Z,29.85
2023-01-15T10:26:34.976Z,29.90
2023-01-15T10:29:24.931Z,29.93
2023-01-15T10:32:08.490Z,30.02
2023-01-15T10:35:10.389Z,30.06
2023-01-15T10:37:55.419Z,30.11
2023-01-15T10:40:40.308Z,30.12
2023-01-15T10:43:32.229Z,30.11
2023-01-15T10:46:20.719Z,30.11
2023-01-15T10:48:56.984Z,30.06
2023-01-15T10:51:43.531Z,30.07
2023-01-15T10:54:34.731Z,30.08
2023-01-15T10:57:21.236Z,30.12
2023-01-15T10:59:59.705Z,30.10
2023-01-15T11:02:51.715Z,30.12
2023-01-15T11:05:23.648Z,30.11
2023-01-15T11:08:36.667Z,30.13
2023-01-15T11:10:46.299Z,30.17
2023-01-15T11:13:46.025Z,30.19
2023-01-15T11:16:44.393Z,30.18
2023-01-15T11:19:39.899Z,30.19
2023-01-15T11:22:13.833Z,30.19
2023-01-15T11:24:53.492Z,30.21
2023-01-15T11:27:35.524Z,30.23
2023-01-15T11:30:08.217Z,30.19
2023-01-15T11:32:40.350Z,30.20
2023-01-15T11:35:19.277Z,30.21
2023-01-15T11:37:49.367Z,30.20
2023-01-15T11:40:25.647Z,30.22
2023-01-15T11:43:14.079Z,30.22
2023-01-15T11:46:12.443Z,30.19
2023-01-15T11:49:09.802Z,30.19
2023-01-15T11:51:51.231Z,30.16
2023-01-15T11:54:21.245Z,30.14
2023-01-15T11:56:51.726Z,30.13
2023-01-15T11:59:23.073Z,30.14
2023-01-15T12:02:00.260Z,30.12
2023-01-15T12:04:37.200Z,30.11
2023-01-15T12:07:15.302Z,30.12
2023-01-15T12:10:42.476Z,30.08
2023-01-15T12:13:30.860Z,30.08
2023-01-15T12:16:33.340Z,30.13
2023-01-15T12:19:34.421Z,30.22
2023-01-15T12:22:13.784Z,30.12
2023-01-15T12:24:49.767Z,30.10
2023-01-15T12:27:56.311Z,30.05
2023-01-15T12:30:31.796Z,30.02
2023-01-15T12:33:07.884Z,30.02
2023-01-15T12:37:40.242Z,30.01
2023-01-15T12:40:28.727Z,30.00
2023-01-15T12:43:18.297Z,29.95
2023-01-15T12:45:55.788Z,29.97
2023-01-15T12:48:49.268Z,29.96
2023-01-15T12:51:29.149Z,29.95
2023-01-15T12:54:06.631Z,29.90
2023-01-15T12:56:50.724Z,29.91
2023-01-15T12:59:34.621Z,29.92
2023-01-15T13:02:14.496Z,29.93
2023-01-15T13:04:59.585Z,29.93
2023-01-15T13:07:46.063Z,29.91
2023-01-15T13:10:22.010Z,29.88
2023-01-15T13:12:52.367Z,29.87
2023-01-15T13:15:28.644Z,29.84
2023-01-15T13:18:24.099Z,29.86
2023-01-15T13:20:57.421Z,29.85
2023-01-15T13:23:50.777Z,29.87
2023-01-15T13:26:47.576Z,29.84
2023-01-15T13:29:32.685Z,29.85
2023-01-15T13:32:27.860Z,29.83
2023-01-15T13:35:19.609Z,29.86
2023-01-15T13:37:55.909Z,29.83
2023-01-15T13:40:30.849Z,29.81
2023-01-15T13:43:01.569Z,29.83
2023-01-15T13:45:41.601Z,29.80
2023-01-15T13:48:19.732Z,29.79
2023-01-15T13:51:01.331Z,29.84
2023-01-15T13:53:38.950Z,29.77
2023-01-15T13:56:17.543Z,29.83
2023-01-15T13:59:02.473Z,29.82
2023-01-15T14:01:39.780Z,29.77
2023-01-15T14:04:20.217Z,29.81
2023-01-15T14:06:55.333Z,29.82
2023-01-15T14:09:25.480Z,29.83
2023-01-15T14:12:18.227Z,29.80
2023-01-15T14:14:54.738Z,29.82
2023-01-15T14:17:46.561Z,29.82
2023-01-15T14:20:49.508Z,29.80
2023-01-15T14:23:29.485Z,29.86
2023-01-15T14:26:27.751Z,29.94
2023-01-15T14:29:29.977Z,29.92
2023-01-15T14:32:09.827Z,29.97
2023-01-15T14:37:47.693Z,29.94
2023-01-15T14:40:32.039Z,29.90
2023-01-15T14:43:10.561Z,29.93
2023-01-15T14:45:47.192Z,29.96
2023-01-15T14:48:38.813Z,29.97
2023-01-15T14:51:17.292Z,29.96
2023-01-15T14:53:57.745Z,29.92
2023-01-15T14:56:56.329Z,29.94
2023-01-15T14:59:33.836Z,29.91
2023-01-15T15:02:33.575Z,29.96
2023-01-15T15:05:04.994Z,29.91
2023-01-15T15:07:42.869Z,29.91
2023-01-15T15:10:22.331Z,29.86
2023-01-15T15:13:35.824Z,29.87
2023-01-15T15:16:20.328Z,29.82
2023-01-15T15:19:05.290Z,29.80
2023-01-15T15:21:45.467Z,29.81
2023-01-15T15:24:30.419Z,29.76
2023-01-15T15:27:11.136Z,29.77
2023-01-15T15:29:41.306Z,29.72
2023-01-15T15:32:23.429Z,29.71
2023-01-15T15:34:56.238Z,29.71
2023-01-15T15:37:29.676Z,29.68
2023-01-15T15:40:18.914Z,29.68
2023-01-15T15:43:37.321Z,29.65
2023-01-15T15:46:26.419Z,29.65
2023-01-15T15:49:00.719Z,29.61
2023-01-15T15:51:39.104Z,29.64
2023-01-15T15:54:21.375Z,29.61
2023-01-15T15:57:11.962Z,29.63
2023-01-15T15:59:47.085Z,29.59
2023-01-15T16:02:29.311Z,29.61
2023-01-15T16:05:03.682Z,29.58
2023-01-15T16:07:36.780Z,29.59
2023-01-15T16:10:16.750Z,29.59
2023-01-15T16:12:59.094Z,29.56
2023-01-15T16:15:50.839Z,29.55
2023-01-15T16:18:37.078Z,29.53
2023-01-15T16:21:07.772Z,29.53
2023-01-15T16:23:38.099Z,29.50
2023-01-15T16:26:13.957Z,29.53
2023-01-15T16:28:49.552Z,29.49
2023-01-15T16:31:21.515Z,29.49
2023-01-15T16:34:02.157Z,29.51
2023-01-15T16:36:44.769Z,29.48
2023-01-15T16:39:26.090Z,29.50
2023-01-15T16:42:01.621Z,29.47
2023-01-15T16:44:39.787Z,29.49
2023-01-15T16:47:10.127Z,29.46
2023-01-15T16:49:40.323Z,29.50
2023-01-15T16:52:48.653Z,29.47
2023-01-15T16:55:36.790Z,29.47
2023-01-15T16:58:15.761Z,29.44
2023-01-15T17:00:58.085Z,29.44
2023-01-15T17:03:30.390Z,29.43
2023-01-15T17:06:14.342Z,29.43
2023-01-15T17:08:51.634Z,29.42
2023-01-15T17:11:35.654Z,29.42
2023-01-15T17:14:42.372Z,29.41
2023-01-15T17:17:25.910Z,29.40
2023-01-15T17:19:59.256Z,29.42
2023-01-15T17:22:33.002Z,29.40
2023-01-15T17:25:04.130Z,29.41
2023-01-15T17:27:34.370Z,29.37
2023-01-15T17:30:06.509Z,29.40
2023-01-15T17:32:38.631Z,29.38
2023-01-15T17:35:10.210Z,29.39
2023-01-15T17:37:40.396Z,29.39
2023-01-15T17:40:11.551Z,29.40
2023-01-15T17:42:41.671Z,29.38
2023-01-15T17:45:26.522Z,29.35
2023-01-15T17:47:56.945Z,29.39
2023-01-15T17:50:27.666Z,29.35
2023-01-15T17:52:57.894Z,29.33
2023-01-15T17:55:46.424Z,29.33
2023-01-15T17:58:35.738Z,29.31
2023-01-15T18:01:33.033Z,29.33
2023-01-15T18:04:22.230Z,29.32
2023-01-15T18:06:56.820Z,29.31
2023-01-15T18:09:27.201Z,29.29
2023-01-15T18:11:57.195Z,29.30
2023-01-15T18:14:27.470Z,29.31
2023-01-15T18:16:57.676Z,29.30
2023-01-15T18:19:27.908Z,29.31
2023-01-15T18:21:58.097Z,29.28
2023-01-15T18:24:28.241Z,29.29
2023-01-15T18:26:58.737Z,29.30
2023-01-15T18:29:28.942Z,29.30
2023-01-15T18:31:59.292Z,29.29
2023-01-15T18:34:30.070Z,29.29
2023-01-15T18:37:00.320Z,29.27
2023-01-15T18:39:30.492Z,29.27
2023-01-15T18:42:00.580Z,29.28
2023-01-15T18:44:48.817Z,29.28
2023-01-15T18:47:19.831Z,29.28
2023-01-15T18:49:49.943Z,29.25
2023-01-15T18:52:38.769Z,29.24
2023-01-15T18:55:09.259Z,29.25
2023-01-15T18:57:39.189Z,29.26
2023-01-15T19:00:09.980Z,29.26
2023-01-15T19:02:40.192Z,29.28
2023-01-15T19:05:10.675Z,29.31
2023-01-15T19:07:42.291Z,29.26
2023-01-15T19:10:14.899Z,29.22
2023-01-15T19:12:46.797Z,29.22
2023-01-15T19:15:40.075Z,29.20
2023-01-15T19:18:31.842Z,29.21
2023-01-15T19:21:02.220Z,29.22
2023-01-15T19:23:32.262Z,29.17
2023-01-15T19:26:03.400Z,29.20
2023-01-15T19:28:33.483Z,29.17
2023-01-15T19:31:21.422Z,29.16
2023-01-15T19:33:51.781Z,29.17
2023-01-15T19:36:22.104Z,29.17
2023-01-15T19:38:51.988Z,29.16
2023-01-15T19:41:40.225Z,29.17
2023-01-15T19:44:30.989Z,29.17
2023-01-15T19:47:19.390Z,29.17
2023-01-15T19:50:08.119Z,29.14
2023-01-15T19:52:38.219Z,29.14
2023-01-15T19:55:12.835Z,29.17
2023-01-15T19:57:45.270Z,29.13
2023-01-15T20:00:19.375Z,29.15
2023-01-15T20:02:49.467Z,29.16
2023-01-15T20:05:19.878Z,29.19
2023-01-15T20:07:50.222Z,29.14
2023-01-15T20:10:22.752Z,29.15
2023-01-15T20:13:12.039Z,29.12
2023-01-15T20:15:44.897Z,29.09
2023-01-15T20:18:16.026Z,29.10
2023-01-15T20:20:46.138Z,29.12
2023-01-15T20:23:16.734Z,29.12
2023-01-15T20:25:51.924Z,29.12
2023-01-15T20:28:23.160Z,29.12
2023-01-15T20:30:55.615Z,29.08
2023-01-15T20:33:26.606Z,29.05
2023-01-15T20:35:57.175Z,29.05
2023-01-15T20:38:27.457Z,29.11
2023-01-15T20:41:17.196Z,29.11
2023-01-15T20:44:05.609Z,29.08
2023-01-15T20:46:35.765Z,29.09
2023-01-15T20:49:24.262Z,29.09
2023-01-15T20:51:54.983Z,29.04
2023-01-15T20:54:25.781Z,29.06
2023-01-15T20:56:55.908Z,29.02
2023-01-15T20:59:25.843Z,29.02
2023-01-15T21:01:55.816Z,29.05
2023-01-15T21:04:25.854Z,29.06
2023-01-15T21:06:55.986Z,29.01
2023-01-15T21:09:26.022Z,29.00
2023-01-15T21:11:55.973Z,29.01
2023-01-15T21:14:25.927Z,28.99
2023-01-15T21:16:55.838Z,29.01
2023-01-15T21:19:26.054Z,29.05
2023-01-15T21:21:56.142Z,29.00
2023-01-15T21:24:26.151Z,29.00
2023-01-15T21:26:56.445Z,28.97
2023-01-15T21:29:26.524Z,28.97
2023-01-15T21:31:56.597Z,28.97
2023-01-15T21:34:26.782Z,28.98
2023-01-15T21:36:56.674Z,28.97
2023-01-15T21:39:27.001Z,28.95
2023-01-15T21:42:15.536Z,29.00
2023-01-15T21:44:45.875Z,28.95
2023-01-15T21:47:18.581Z,28.96
2023-01-15T21:49:48.809Z,28.95
2023-01-15T21:52:23.031Z,28.97
2023-01-15T21:54:54.272Z,28.96
2023-01-15T21:57:24.641Z,28.97
2023-01-15T21:59:54.815Z,28.95
2023-01-15T22:02:25.633Z,28.92
2023-01-15T22:04:55.851Z,28.96
2023-01-15T22:07:25.802Z,28.92
2023-01-15T22:09:55.776Z,28.92
2023-01-15T22:12:25.878Z,28.89
2023-01-15T22:14:57.590Z,28.89
2023-01-15T22:17:27.678Z,28.91
2023-01-15T22:19:57.618Z,28.91
2023-01-15T22:22:36.028Z,28.93
2023-01-15T22:25:07.756Z,28.94
2023-01-15T22:27:42.853Z,28.96
2023-01-15T22:30:15.835Z,28.93
2023-01-15T22:32:47.069Z,28.91
2023-01-15T22:35:17.057Z,28.91
2023-01-15T22:37:46.940Z,28.89
2023-01-15T22:40:17.100Z,28.92
2023-01-15T22:42:47.165Z,28.89
2023-01-15T22:45:17.625Z,28.90
2023-01-15T22:47:48.701Z,28.91
2023-01-15T22:50:19.280Z,28.90
2023-01-15T22:52:49.477Z,28.92
2023-01-15T22:56:34.686Z,28.97
2023-01-15T22:59:04.747Z,28.93
2023-01-15T23:01:34.869Z,28.87
2023-01-15T23:04:04.992Z,28.80
2023-01-15T23:06:34.903Z,28.74
2023-01-15T23:09:05.846Z,28.69
2023-01-15T23:11:35.886Z,28.63
2023-01-15T23:14:06.197Z,28.66
2023-01-15T23:16:36.686Z,28.66
2023-01-15T23:19:09.541Z,28.70
2023-01-15T23:21:40.658Z,28.74
2023-01-15T23:24:11.539Z,28.74
2023-01-15T23:26:41.929Z,28.74
2023-01-15T23:29:11.952Z,28.74
2023-01-15T23:31:41.818Z,28.77
2023-01-15T23:34:12.789Z,28.78
2023-01-15T23:36:42.847Z,28.76
2023-01-15T23:39:12.821Z,28.78
2023-01-15T23:42:00.964Z,28.82
2023-01-15T23:44:50.229Z,28.82
2023-01-15T23:47:20.174Z,28.79
2023-01-15T23:49:50.132Z,28.80
2023-01-15T23:52:20.155Z,28.80
2023-01-15T23:54:50.207Z,28.78
2023-01-15T23:57:20.358Z,28.79
2023-01-15T23:59:50.220Z,28.82
